Time,TemperatureF,DewpointF,PressureIn,WindDirection,WindDirectionDegrees,WindSpeedMPH,WindSpeedGustMPH,Humidity,HourlyPrecipIn,Conditions,Clouds,dailyrainin,SolarRadiationWatts/m^2,SoftwareType,DateUTC
2013-02-15 00:11:00,45.1,40.0,30.25,SSE,165,0.0,0.0,83,0.00,,,0.00,0,weatherlink.com 1.10,2013-02-15 08:11:00,
2013-02-15 00:26:00,44.6,40.0,30.24,SSE,165,0.0,0.0,83,0.00,,,0.00,0,weatherlink.com 1.10,2013-02-15 08:26:00,
2013-02-15 00:41:00,44.5,40.0,30.24,SSE,165,0.0,3.0,84,0.00,,,0.00,0,weatherlink.com 1.10,2013-02-15 08:41:00,
2013-02-15 00:56:00,44.3,40.0,30.24,SSE,165,2.0,2.0,84,0.00,,,0.00,0,weatherlink.com 1.10,2013-02-15 08:56:00,
2013-02-15 01:11:00,44.7,41.0,30.24,SSE,155,1.0,4.0,85,0.00,,,0.00,0,weatherlink.com 1.10,2013-02-15 09:11:00,
2013-02-15 01:26:00,46.2,40.0,30.24,SSE,160,0.0,6.0,80,0.00,,,0.00,0,weatherlink.com 1.10,2013-02-15 09:26:00,
2013-02-15 01:41:00,47.0,40.0,30.24,South,173,6.0,7.0,77,0.00,,,0.00,0,weatherlink.com 1.10,2013-02-15 09:41:00,
2013-02-15 01:56:00,46.9,40.0,30.25,South,175,2.0,4.0,76,0.00,,,0.00,0,weatherlink.com 1.10,2013-02-15 09:56:00,
2013-02-15 02:11:00,46.0,40.0,30.25,South,175,0.0,5.0,78,0.00,,,0.00,0,weatherlink.com 1.10,2013-02-15 10:11:00,
2013-02-15 02:26:00,45.5,39.0,30.25,South,175,1.0,2.0,79,0.00,,,0.00,0,weatherlink.com 1.10,2013-02-15 10:26:00,
2013-02-15 02:41:00,44.4,39.0,30.25,South,175,0.0,1.0,80,0.00,,,0.00,0,weatherlink.com 1.10,2013-02-15 10:41:00,
2013-02-15 02:56:00,44.4,39.0,30.24,South,175,0.0,0.0,81,0.00,,,0.00,0,weatherlink.com 1.10,2013-02-15 10:56:00,
2013-02-15 03:11:00,43.6,38.0,30.25,South,175,1.0,2.0,82,0.00,,,0.00,0,weatherlink.com 1.10,2013-02-15 11:11:00,
2013-02-15 03:26:00,43.7,39.0,30.24,South,175,0.0,3.0,82,0.00,,,0.00,0,weatherlink.com 1.10,2013-02-15 11:26:00,
2013-02-15 03:41:00,43.7,39.0,30.24,South,175,0.0,1.0,82,0.00,,,0.00,0,weatherlink.com 1.10,2013-02-15 11:41:00,
2013-02-15 03:56:00,42.8,38.0,30.24,South,175,0.0,0.0,83,0.00,,,0.00,0,weatherlink.com 1.10,2013-02-15 11:56:00,
2013-02-15 04:11:00,42.9,38.0,30.24,South,175,0.0,0.0,84,0.00,,,0.00,0,weatherlink.com 1.10,2013-02-15 12:11:00,
2013-02-15 04:26:00,42.4,38.0,30.24,South,175,0.0,0.0,83,0.00,,,0.00,0,weatherlink.com 1.10,2013-02-15 12:26:00,
2013-02-15 04:41:00,41.7,37.0,30.25,South,175,0.0,1.0,83,0.00,,,0.00,0,weatherlink.com 1.10,2013-02-15 12:41:00,
2013-02-15 04:56:00,42.0,38.0,30.25,South,175,0.0,2.0,84,0.00,,,0.00,0,weatherlink.com 1.10,2013-02-15 12:56:00,
2013-02-15 05:11:00,41.8,38.0,30.25,South,175,0.0,0.0,85,0.00,,,0.00,0,weatherlink.com 1.10,2013-02-15 13:11:00,
2013-02-15 05:26:00,41.4,38.0,30.25,South,175,0.0,0.0,86,0.00,,,0.00,0,weatherlink.com 1.10,2013-02-15 13:26:00,
2013-02-15 05:42:00,41.9,38.0,30.24,South,175,0.0,0.0,85,0.00,,,0.00,0,weatherlink.com 1.10,2013-02-15 13:42:00,
2013-02-15 05:57:00,40.7,37.0,30.24,South,175,0.0,0.0,85,0.00,,,0.00,0,weatherlink.com 1.10,2013-02-15 13:57:00,
2013-02-15 06:12:00,41.1,38.0,30.24,South,175,0.0,0.0,87,0.00,,,0.00,0,weatherlink.com 1.10,2013-02-15 14:12:00,
2013-02-15 06:27:00,40.9,37.0,30.25,South,175,0.0,0.0,86,0.00,,,0.00,0,weatherlink.com 1.10,2013-02-15 14:27:00,
2013-02-15 06:42:00,41.2,37.0,30.25,South,175,0.0,0.0,86,0.00,,,0.00,0,weatherlink.com 1.10,2013-02-15 14:42:00,
2013-02-15 06:57:00,41.1,38.0,30.26,South,175,0.0,0.0,87,0.00,,,0.00,5,weatherlink.com 1.10,2013-02-15 14:57:00,
2013-02-15 07:12:00,41.0,37.0,30.26,South,175,0.0,1.0,86,0.00,,,0.00,16,weatherlink.com 1.10,2013-02-15 15:12:00,
2013-02-15 07:27:00,41.9,38.0,30.27,South,175,0.0,0.0,85,0.00,,,0.00,74,weatherlink.com 1.10,2013-02-15 15:27:00,
2013-02-15 07:42:00,42.8,39.0,30.27,South,175,0.0,0.0,85,0.00,,,0.00,120,weatherlink.com 1.10,2013-02-15 15:42:00,
2013-02-15 07:57:00,44.9,39.0,30.27,South,175,0.0,1.0,81,0.00,,,0.00,174,weatherlink.com 1.10,2013-02-15 15:57:00,
2013-02-15 08:12:00,45.9,40.0,30.28,South,175,1.0,3.0,80,0.00,,,0.00,243,weatherlink.com 1.10,2013-02-15 16:12:00,
2013-02-15 08:27:00,48.0,40.0,30.28,SSE,167,3.0,5.0,75,0.00,,,0.00,297,weatherlink.com 1.10,2013-02-15 16:27:00,
2013-02-15 08:42:00,49.5,41.0,30.28,South,169,4.0,5.0,72,0.00,,,0.00,348,weatherlink.com 1.10,2013-02-15 16:42:00,
2013-02-15 08:57:00,50.7,41.0,30.28,SSE,168,3.0,4.0,70,0.00,,,0.00,394,weatherlink.com 1.10,2013-02-15 16:57:00,
2013-02-15 09:12:00,52.1,41.0,30.28,South,169,2.0,4.0,67,0.00,,,0.00,438,weatherlink.com 1.10,2013-02-15 17:12:00,
2013-02-15 09:27:00,54.3,42.0,30.28,South,169,2.0,4.0,64,0.00,,,0.00,480,weatherlink.com 1.10,2013-02-15 17:27:00,
2013-02-15 09:57:00,58.6,42.0,30.28,South,169,2.0,4.0,54,0.00,,,0.00,552,weatherlink.com 1.10,2013-02-15 17:57:00,
2013-02-15 10:13:00,60.8,40.0,30.28,NNE,21,1.0,6.0,47,0.00,,,0.00,577,weatherlink.com 1.10,2013-02-15 18:13:00,
2013-02-15 10:28:00,61.3,41.0,30.28,NNW,341,3.0,7.0,47,0.00,,,0.00,603,weatherlink.com 1.10,2013-02-15 18:28:00,
2013-02-15 10:43:00,62.6,41.0,30.28,NE,34,6.0,9.0,45,0.00,,,0.00,629,weatherlink.com 1.10,2013-02-15 18:43:00,
2013-02-15 10:58:00,63.3,41.0,30.28,NNW,348,5.0,9.0,44,0.00,,,0.00,645,weatherlink.com 1.10,2013-02-15 18:58:00,
2013-02-15 11:13:00,64.6,41.0,30.28,NNW,337,5.0,7.0,43,0.00,,,0.00,657,weatherlink.com 1.10,2013-02-15 19:13:00,
2013-02-15 11:28:00,65.6,42.0,30.28,NNE,29,5.0,7.0,42,0.00,,,0.00,666,weatherlink.com 1.10,2013-02-15 19:28:00,
2013-02-15 11:43:00,66.1,41.0,30.28,North,9,2.0,9.0,40,0.00,,,0.00,673,weatherlink.com 1.10,2013-02-15 19:43:00,
2013-02-15 11:58:00,66.0,41.0,30.27,NNW,346,5.0,11.0,40,0.00,,,0.00,677,weatherlink.com 1.10,2013-02-15 19:58:00,
2013-02-15 12:13:00,66.6,41.0,30.27,WNW,303,4.0,9.0,40,0.00,,,0.00,677,weatherlink.com 1.10,2013-02-15 20:13:00,
2013-02-15 12:28:00,66.9,42.0,30.26,NNW,339,4.0,10.0,40,0.00,,,0.00,671,weatherlink.com 1.10,2013-02-15 20:28:00,
2013-02-15 12:43:00,67.2,42.0,30.26,NW,311,3.0,10.0,40,0.00,,,0.00,661,weatherlink.com 1.10,2013-02-15 20:43:00,
2013-02-15 12:58:00,67.9,42.0,30.25,NW,319,3.0,9.0,39,0.00,,,0.00,652,weatherlink.com 1.10,2013-02-15 20:58:00,
2013-02-15 13:13:00,68.3,42.0,30.25,NW,321,4.0,8.0,38,0.00,,,0.00,636,weatherlink.com 1.10,2013-02-15 21:13:00,
2013-02-15 13:28:00,69.1,42.0,30.24,NNW,329,2.0,8.0,38,0.00,,,0.00,610,weatherlink.com 1.10,2013-02-15 21:28:00,
2013-02-15 13:43:00,69.6,43.0,30.24,NW,309,3.0,7.0,38,0.00,,,0.00,587,weatherlink.com 1.10,2013-02-15 21:43:00,
2013-02-15 13:58:00,69.5,43.0,30.24,NNW,340,1.0,8.0,38,0.00,,,0.00,561,weatherlink.com 1.10,2013-02-15 21:58:00,
2013-02-15 14:13:00,70.4,43.0,30.23,NNW,333,6.0,8.0,38,0.00,,,0.00,531,weatherlink.com 1.10,2013-02-15 22:13:00,
2013-02-15 14:28:00,70.3,44.0,30.23,North,5,3.0,6.0,39,0.00,,,0.00,490,weatherlink.com 1.10,2013-02-15 22:28:00,
2013-02-15 14:43:00,70.2,45.0,30.23,NW,319,5.0,8.0,40,0.00,,,0.00,455,weatherlink.com 1.10,2013-02-15 22:43:00,
2013-02-15 14:58:00,70.1,45.0,30.23,North,355,6.0,9.0,41,0.00,,,0.00,418,weatherlink.com 1.10,2013-02-15 22:58:00,
2013-02-15 15:13:00,70.5,46.0,30.23,NNW,342,4.0,8.0,41,0.00,,,0.00,373,weatherlink.com 1.10,2013-02-15 23:13:00,
2013-02-15 15:28:00,70.3,45.0,30.23,NNW,333,3.0,8.0,41,0.00,,,0.00,334,weatherlink.com 1.10,2013-02-15 23:28:00,
2013-02-15 15:43:00,70.0,44.0,30.23,North,11,1.0,8.0,40,0.00,,,0.00,290,weatherlink.com 1.10,2013-02-15 23:43:00,
2013-02-15 15:58:00,69.8,44.0,30.23,NW,325,4.0,9.0,40,0.00,,,0.00,232,weatherlink.com 1.10,2013-02-15 23:58:00,
2013-02-15 16:13:00,69.4,45.0,30.23,NNW,333,4.0,8.0,42,0.00,,,0.00,171,weatherlink.com 1.10,2013-02-16 00:13:00,
2013-02-15 16:28:00,68.8,45.0,30.23,NW,313,5.0,8.0,42,0.00,,,0.00,113,weatherlink.com 1.10,2013-02-16 00:28:00,
2013-02-15 16:43:00,68.0,45.0,30.23,NNW,338,3.0,8.0,43,0.00,,,0.00,65,weatherlink.com 1.10,2013-02-16 00:43:00,
2013-02-15 16:58:00,67.4,44.0,30.22,North,355,5.0,7.0,43,0.00,,,0.00,33,weatherlink.com 1.10,2013-02-16 00:58:00,
2013-02-15 17:13:00,66.6,44.0,30.22,North,10,1.0,5.0,44,0.00,,,0.00,25,weatherlink.com 1.10,2013-02-16 01:13:00,
2013-02-15 17:28:00,65.6,44.0,30.23,NNE,19,2.0,5.0,46,0.00,,,0.00,18,weatherlink.com 1.10,2013-02-16 01:28:00,
2013-02-15 17:43:00,64.1,44.0,30.23,NNE,19,2.0,3.0,48,0.00,,,0.00,7,weatherlink.com 1.10,2013-02-16 01:43:00,
2013-02-15 17:58:00,62.2,44.0,30.23,NNE,19,1.0,1.0,51,0.00,,,0.00,0,weatherlink.com 1.10,2013-02-16 01:58:00,
2013-02-15 18:13:00,60.0,44.0,30.23,NNE,19,0.0,1.0,56,0.00,,,0.00,0,weatherlink.com 1.10,2013-02-16 02:13:00,
2013-02-15 18:28:00,58.9,44.0,30.23,NNE,19,0.0,1.0,58,0.00,,,0.00,0,weatherlink.com 1.10,2013-02-16 02:28:00,
2013-02-15 18:43:00,56.9,44.0,30.23,NNE,19,1.0,1.0,62,0.00,,,0.00,0,weatherlink.com 1.10,2013-02-16 02:43:00,
2013-02-15 18:58:00,56.1,44.0,30.24,NNE,19,0.0,1.0,65,0.00,,,0.00,0,weatherlink.com 1.10,2013-02-16 02:58:00,
2013-02-15 19:13:00,56.8,44.0,30.24,NNE,19,0.0,2.0,63,0.00,,,0.00,0,weatherlink.com 1.10,2013-02-16 03:13:00,
2013-02-15 19:28:00,55.0,44.0,30.25,NNE,19,0.0,1.0,67,0.00,,,0.00,0,weatherlink.com 1.10,2013-02-16 03:28:00,
2013-02-15 19:43:00,54.2,44.0,30.25,NNE,19,0.0,0.0,68,0.00,,,0.00,0,weatherlink.com 1.10,2013-02-16 03:43:00,
2013-02-15 19:58:00,53.5,44.0,30.25,NNE,19,0.0,0.0,70,0.00,,,0.00,0,weatherlink.com 1.10,2013-02-16 03:58:00,
2013-02-15 20:13:00,52.9,44.0,30.25,NNE,19,0.0,0.0,71,0.00,,,0.00,0,weatherlink.com 1.10,2013-02-16 04:13:00,
2013-02-15 20:28:00,51.7,43.0,30.25,NNE,19,0.0,0.0,73,0.00,,,0.00,0,weatherlink.com 1.10,2013-02-16 04:28:00,
2013-02-15 20:43:00,50.3,43.0,30.26,NNE,19,1.0,1.0,76,0.00,,,0.00,0,weatherlink.com 1.10,2013-02-16 04:43:00,
2013-02-15 20:58:00,50.0,43.0,30.26,NNE,19,0.0,0.0,76,0.00,,,0.00,0,weatherlink.com 1.10,2013-02-16 04:58:00,
2013-02-15 21:13:00,49.6,43.0,30.26,NNE,19,0.0,0.0,77,0.00,,,0.00,0,weatherlink.com 1.10,2013-02-16 05:13:00,
2013-02-15 21:28:00,49.1,43.0,30.26,NNE,19,0.0,0.0,78,0.00,,,0.00,0,weatherlink.com 1.10,2013-02-16 05:28:00,
2013-02-15 21:43:00,48.5,43.0,30.27,NNE,19,0.0,0.0,80,0.00,,,0.00,0,weatherlink.com 1.10,2013-02-16 05:43:00,
2013-02-15 21:58:00,48.3,42.0,30.27,NNE,19,0.0,0.0,80,0.00,,,0.00,0,weatherlink.com 1.10,2013-02-16 05:58:00,
2013-02-15 22:13:00,48.0,42.0,30.27,NNE,19,0.0,0.0,81,0.00,,,0.00,0,weatherlink.com 1.10,2013-02-16 06:13:00,
2013-02-15 22:28:00,47.5,42.0,30.27,NNE,19,0.0,0.0,81,0.00,,,0.00,0,weatherlink.com 1.10,2013-02-16 06:28:00,
2013-02-15 22:43:00,47.0,42.0,30.27,NNE,19,0.0,1.0,82,0.00,,,0.00,0,weatherlink.com 1.10,2013-02-16 06:43:00,
2013-02-15 22:58:00,47.0,42.0,30.27,NNE,19,0.0,1.0,82,0.00,,,0.00,0,weatherlink.com 1.10,2013-02-16 06:58:00,
2013-02-15 23:13:00,47.2,42.0,30.27,NNE,19,0.0,0.0,81,0.00,,,0.00,0,weatherlink.com 1.10,2013-02-16 07:13:00,
2013-02-15 23:28:00,46.2,41.0,30.27,NNE,19,0.0,0.0,82,0.00,,,0.00,0,weatherlink.com 1.10,2013-02-16 07:28:00,
2013-02-15 23:44:00,46.3,42.0,30.27,NNE,19,0.0,0.0,84,0.00,,,0.00,0,weatherlink.com 1.10,2013-02-16 07:44:00,
2013-02-15 23:59:00,45.2,40.0,30.27,NNE,19,0.0,1.0,83,0.00,,,0.00,0,weatherlink.com 1.10,2013-02-16 07:59:00,